createdAt,value
2018-05-10T00:00:43.074Z,6.00
2018-05-10T00:03:11.072Z,7.10
2018-05-10T00:05:39.188Z,6.17
2018-05-10T00:08:07.155Z,5.73
2018-05-10T00:10:35.165Z,4.60
2018-05-10T00:13:03.158Z,5.40
2018-05-10T00:15:31.178Z,5.50
2018-05-10T00:17:59.167Z,4.80
2018-05-10T00:20:27.167Z,4.90
2018-05-10T00:22:55.240Z,5.10
2018-05-10T00:25:24.054Z,5.10
2018-05-10T00:27:52.656Z,5.23
2018-05-10T00:30:20.648Z,4.77
2018-05-10T00:32:48.638Z,6.00
2018-05-10T00:35:16.653Z,5.20
2018-05-10T00:37:44.651Z,5.30
2018-05-10T00:40:13.356Z,5.50
2018-05-10T00:42:41.401Z,4.87
2018-05-10T00:45:09.421Z,5.80
2018-05-10T00:47:37.460Z,6.00
2018-05-10T00:50:05.480Z,6.00
2018-05-10T00:52:33.463Z,5.03
2018-05-10T00:55:01.541Z,5.50
2018-05-10T00:57:29.561Z,5.60
2018-05-10T00:59:57.548Z,5.83
2018-05-10T01:02:25.546Z,5.47
2018-05-10T01:04:53.657Z,5.30
2018-05-10T01:07:21.636Z,5.80
2018-05-10T01:09:49.671Z,6.23
2018-05-10T01:12:17.705Z,5.43
2018-05-10T01:14:45.714Z,5.00
2018-05-10T01:17:13.726Z,6.10
2018-05-10T01:19:41.731Z,6.20
2018-05-10T01:22:10.226Z,5.47
2018-05-10T01:24:38.232Z,6.10
2018-05-10T01:27:06.320Z,5.20
2018-05-10T01:29:35.056Z,5.60
2018-05-10T01:32:03.069Z,6.03
2018-05-10T01:34:31.083Z,6.00
2018-05-10T01:36:59.356Z,5.90
2018-05-10T01:39:27.431Z,6.00
2018-05-10T01:41:55.452Z,5.20
2018-05-10T01:44:23.456Z,6.07
2018-05-10T01:46:51.485Z,5.50
2018-05-10T01:49:19.575Z,6.57
2018-05-10T01:51:47.618Z,6.10
2018-05-10T01:54:15.615Z,6.67
2018-05-10T01:56:43.603Z,6.17
2018-05-10T01:59:11.568Z,5.93
2018-05-10T02:01:39.587Z,5.43
2018-05-10T02:04:07.601Z,5.70
2018-05-10T02:06:35.612Z,7.33
2018-05-10T02:09:03.581Z,6.50
2018-05-10T02:11:31.592Z,6.43
2018-05-10T02:13:59.740Z,6.70
2018-05-10T02:16:28.327Z,7.27
2018-05-10T02:18:56.364Z,7.47
2018-05-10T02:21:24.391Z,6.90
2018-05-10T02:23:52.376Z,7.10
2018-05-10T02:26:20.368Z,6.70
2018-05-10T02:28:48.381Z,6.93
2018-05-10T02:31:17.033Z,6.93
2018-05-10T02:33:45.041Z,7.43
2018-05-10T02:36:13.067Z,7.17
2018-05-10T02:38:41.070Z,7.47
2018-05-10T02:41:09.133Z,7.43
2018-05-10T02:43:37.085Z,8.03
2018-05-10T02:46:05.096Z,6.90
2018-05-10T02:48:33.087Z,8.17
2018-05-10T02:51:01.083Z,8.00
2018-05-10T02:53:29.064Z,8.53
2018-05-10T02:55:57.221Z,7.97
2018-05-10T02:58:25.226Z,7.13
2018-05-10T03:00:53.202Z,7.80
2018-05-10T03:03:21.209Z,7.60
2018-05-10T03:05:49.201Z,8.50
2018-05-10T03:08:17.536Z,8.60
2018-05-10T03:10:46.371Z,8.90
2018-05-10T03:13:14.385Z,7.63
2018-05-10T03:15:42.448Z,8.60
2018-05-10T03:18:10.528Z,7.60
2018-05-10T03:20:38.596Z,7.53
2018-05-10T03:23:06.562Z,7.23
2018-05-10T03:25:34.601Z,7.80
2018-05-10T03:28:02.556Z,7.50
2018-05-10T03:30:30.476Z,7.80
2018-05-10T03:32:58.465Z,7.47
2018-05-10T03:35:26.381Z,8.00
2018-05-10T03:37:54.320Z,8.10
2018-05-10T03:40:22.293Z,7.80
2018-05-10T03:42:50.204Z,7.90
2018-05-10T03:45:18.187Z,8.37
2018-05-10T03:47:46.104Z,8.47
2018-05-10T03:50:14.056Z,8.10
2018-05-10T03:52:42.042Z,8.30
2018-05-10T03:55:10.181Z,9.00
2018-05-10T03:57:38.852Z,7.37
2018-05-10T04:00:06.776Z,8.40
2018-05-10T04:02:46.655Z,7.60
2018-05-10T04:05:26.565Z,7.90
2018-05-10T04:11:01.811Z,8.33
2018-05-10T04:13:29.747Z,9.00
2018-05-10T04:15:57.667Z,8.43
2018-05-10T04:18:25.621Z,8.33
2018-05-10T04:20:53.568Z,9.63
2018-05-10T04:23:21.576Z,9.17
2018-05-10T04:25:49.508Z,8.67
2018-05-10T04:28:17.437Z,9.40
2018-05-10T04:30:45.400Z,9.50
2018-05-10T04:33:13.330Z,8.50
2018-05-10T04:35:41.477Z,9.60
2018-05-10T04:38:09.513Z,9.13
2018-05-10T04:40:37.486Z,9.90
2018-05-10T04:43:05.454Z,9.27
2018-05-10T04:45:33.394Z,9.30
2018-05-10T04:48:01.333Z,9.23
2018-05-10T04:50:29.256Z,9.07
2018-05-10T04:52:57.172Z,9.67
2018-05-10T04:55:25.321Z,9.70
2018-05-10T04:57:53.264Z,10.50
2018-05-10T05:00:21.204Z,9.20
2018-05-10T05:02:49.248Z,9.40
2018-05-10T05:05:17.337Z,8.47
2018-05-10T05:07:45.328Z,9.10
2018-05-10T05:10:13.263Z,9.33
2018-05-10T05:12:41.158Z,8.27
2018-05-10T05:15:09.112Z,9.43
2018-05-10T05:17:37.095Z,10.00
2018-05-10T05:20:05.069Z,10.13
2018-05-10T05:22:32.954Z,9.60
2018-05-10T05:25:01.621Z,9.80
2018-05-10T05:27:29.544Z,10.03
2018-05-10T05:29:57.675Z,10.00
2018-05-10T05:32:25.863Z,8.93
2018-05-10T05:37:38.908Z,9.93
2018-05-10T05:40:07.756Z,9.40
2018-05-10T05:42:35.662Z,9.53
2018-05-10T05:45:03.956Z,9.27
2018-05-10T05:47:31.890Z,9.50
2018-05-10T05:49:59.826Z,9.80
2018-05-10T05:52:28.280Z,9.10
2018-05-10T05:54:56.247Z,9.00
2018-05-10T05:57:24.161Z,8.50
2018-05-10T05:59:52.115Z,8.30
2018-05-10T06:02:20.143Z,9.37
2018-05-10T06:04:48.063Z,8.20
2018-05-10T06:07:16.030Z,10.63
2018-05-10T06:09:43.955Z,9.27
2018-05-10T06:12:12.695Z,9.37
2018-05-10T06:14:40.613Z,8.83
2018-05-10T06:17:08.622Z,9.40
2018-05-10T06:19:36.557Z,8.47
2018-05-10T06:22:04.489Z,9.10
2018-05-10T06:24:32.479Z,8.37
2018-05-10T06:27:00.431Z,9.43
2018-05-10T06:29:28.406Z,8.67
2018-05-10T06:31:56.314Z,8.73
2018-05-10T06:34:24.235Z,8.80
2018-05-10T06:36:52.272Z,9.10
2018-05-10T06:39:20.250Z,8.57
2018-05-10T06:41:48.189Z,10.00
2018-05-10T06:44:16.165Z,8.10
2018-05-10T06:46:44.175Z,8.77
2018-05-10T06:49:12.120Z,9.40
2018-05-10T06:51:40.214Z,8.97
2018-05-10T06:54:08.150Z,9.57
2018-05-10T06:56:36.065Z,9.40
2018-05-10T06:59:04.001Z,8.40
2018-05-10T07:01:31.975Z,9.97
2018-05-10T07:03:59.900Z,8.70
2018-05-10T07:06:27.906Z,9.37
2018-05-10T07:08:56.100Z,9.07
2018-05-10T07:11:24.011Z,9.27
2018-05-10T07:13:52.064Z,8.97
2018-05-10T07:16:19.994Z,9.57
2018-05-10T07:18:47.965Z,8.60
2018-05-10T07:21:16.629Z,7.70
2018-05-10T07:23:44.552Z,9.17
2018-05-10T07:26:12.589Z,8.50
2018-05-10T07:28:40.517Z,8.57
2018-05-10T07:31:08.468Z,9.10
2018-05-10T07:33:36.371Z,9.03
2018-05-10T07:36:05.224Z,8.87
2018-05-10T07:38:33.151Z,8.50
2018-05-10T07:41:01.111Z,7.60
2018-05-10T07:43:29.028Z,8.53
2018-05-10T07:45:56.985Z,10.67
2018-05-10T07:48:24.891Z,9.00
2018-05-10T07:50:52.834Z,8.07
2018-05-10T07:53:20.779Z,7.67
2018-05-10T07:55:48.739Z,8.13
2018-05-10T07:58:16.655Z,8.10
2018-05-10T08:00:44.578Z,9.67
2018-05-10T08:03:12.568Z,8.80
2018-05-10T08:05:40.500Z,8.30
2018-05-10T08:08:08.451Z,7.97
2018-05-10T08:10:36.421Z,7.77
2018-05-10T08:13:04.341Z,8.00
2018-05-10T08:15:32.275Z,8.53
2018-05-10T08:18:00.268Z,8.60
2018-05-10T08:20:28.375Z,8.47
2018-05-10T08:22:56.377Z,8.87
2018-05-10T08:25:24.297Z,8.20
2018-05-10T08:27:52.248Z,7.83
2018-05-10T08:30:20.251Z,8.47
2018-05-10T08:32:48.116Z,8.97
2018-05-10T08:35:17.120Z,8.80
2018-05-10T08:37:45.130Z,8.90
2018-05-10T08:40:13.044Z,7.43
2018-05-10T08:42:41.001Z,8.37
2018-05-10T08:45:08.986Z,7.60
2018-05-10T08:47:36.884Z,7.50
2018-05-10T08:50:05.570Z,7.47
2018-05-10T08:52:33.948Z,7.70
2018-05-10T08:55:02.353Z,7.60
2018-05-10T08:57:30.287Z,7.20
2018-05-10T08:59:59.009Z,7.60
2018-05-10T09:02:26.843Z,7.17
2018-05-10T09:04:54.788Z,7.80
2018-05-10T09:07:22.797Z,7.73
2018-05-10T09:09:50.610Z,7.43
2018-05-10T09:12:18.517Z,6.57
2018-05-10T09:14:46.436Z,8.30
2018-05-10T09:17:14.450Z,6.20
2018-05-10T09:19:42.465Z,6.60
2018-05-10T09:22:10.388Z,5.80
2018-05-10T09:24:38.331Z,6.10
2018-05-10T09:27:06.245Z,6.30
2018-05-10T09:29:34.200Z,6.00
2018-05-10T09:32:02.230Z,7.40
2018-05-10T09:34:30.199Z,6.67
2018-05-10T09:36:58.214Z,6.13
2018-05-10T09:39:26.644Z,5.87
2018-05-10T09:41:54.611Z,6.30
2018-05-10T09:44:22.525Z,5.13
2018-05-10T09:46:51.399Z,5.83
2018-05-10T09:49:20.051Z,5.20
2018-05-10T09:51:47.983Z,6.27
2018-05-10T09:54:16.031Z,6.27
2018-05-10T09:56:43.956Z,6.50
2018-05-10T09:59:11.880Z,6.23
2018-05-10T10:01:39.850Z,6.30
2018-05-10T10:04:07.788Z,6.23
2018-05-10T10:06:35.707Z,5.63
2018-05-10T10:09:03.676Z,5.70
2018-05-10T10:11:31.684Z,5.60
2018-05-10T10:13:59.573Z,6.10
2018-05-10T10:16:27.470Z,6.20
2018-05-10T10:18:55.380Z,5.93
2018-05-10T10:21:23.357Z,6.10
2018-05-10T10:23:51.215Z,5.67
2018-05-10T10:26:19.139Z,6.00
2018-05-10T10:28:47.111Z,5.40
2018-05-10T10:31:15.025Z,5.20
2018-05-10T10:33:42.955Z,5.97
2018-05-10T10:36:10.916Z,6.20
2018-05-10T10:38:38.824Z,5.30
2018-05-10T10:41:06.747Z,4.90
2018-05-10T10:43:34.707Z,5.20
2018-05-10T10:46:02.626Z,5.03
2018-05-10T10:48:30.561Z,5.13
2018-05-10T10:50:58.475Z,5.27
2018-05-10T10:53:26.421Z,5.17
2018-05-10T10:55:54.370Z,5.30
2018-05-10T10:58:22.284Z,6.47
2018-05-10T11:00:50.204Z,5.20
2018-05-10T11:03:18.208Z,4.77
2018-05-10T11:05:46.150Z,4.90
2018-05-10T11:08:14.074Z,6.43
2018-05-10T11:10:42.067Z,6.97
2018-05-10T11:13:10.134Z,5.27
2018-05-10T11:15:38.680Z,5.53
2018-05-10T11:18:06.763Z,6.93
2018-05-10T11:20:34.694Z,5.73
2018-05-10T11:23:02.608Z,6.17
2018-05-10T11:25:30.629Z,6.23
2018-05-10T11:27:58.541Z,7.20
2018-05-10T11:30:26.561Z,6.10
2018-05-10T11:32:54.616Z,6.70
2018-05-10T11:35:22.447Z,6.73
2018-05-10T11:37:50.366Z,6.33
2018-05-10T11:40:18.286Z,5.97
2018-05-10T11:42:46.220Z,6.93
2018-05-10T11:45:14.137Z,5.83
2018-05-10T11:47:42.127Z,6.60
2018-05-10T11:50:10.072Z,6.13
2018-05-10T11:52:37.985Z,6.00
2018-05-10T11:55:05.891Z,7.53
2018-05-10T11:57:33.848Z,6.47
2018-05-10T12:00:01.787Z,6.70
2018-05-10T12:02:29.751Z,6.53
2018-05-10T12:04:57.718Z,6.63
2018-05-10T12:07:25.633Z,6.10
2018-05-10T12:09:53.588Z,6.40
2018-05-10T12:12:21.676Z,7.30
2018-05-10T12:14:49.576Z,6.83
2018-05-10T12:17:17.497Z,7.20
2018-05-10T12:19:45.414Z,7.40
2018-05-10T12:22:13.433Z,7.20
2018-05-10T12:24:41.333Z,6.70
2018-05-10T12:27:09.284Z,7.20
2018-05-10T12:29:37.287Z,6.10
2018-05-10T12:32:05.185Z,7.00
2018-05-10T12:34:33.210Z,7.67
2018-05-10T12:37:01.189Z,6.70
2018-05-10T12:39:29.115Z,6.57
2018-05-10T12:41:57.226Z,7.43
2018-05-10T12:44:25.261Z,7.97
2018-05-10T12:46:53.180Z,6.80
2018-05-10T12:49:21.101Z,6.30
2018-05-10T12:51:49.028Z,8.13
2018-05-10T12:54:16.951Z,7.77
2018-05-10T12:56:44.860Z,7.17
2018-05-10T12:59:12.794Z,6.80
2018-05-10T13:01:40.740Z,7.17
2018-05-10T13:04:08.725Z,7.60
2018-05-10T13:06:36.826Z,6.93
2018-05-10T13:09:04.824Z,6.70
2018-05-10T13:11:32.908Z,7.07
2018-05-10T13:14:00.798Z,7.17
2018-05-10T13:16:28.805Z,7.60
2018-05-10T13:18:56.749Z,6.87
2018-05-10T13:21:24.667Z,7.30
2018-05-10T13:23:52.581Z,7.40
2018-05-10T13:26:20.486Z,6.67
2018-05-10T13:28:48.443Z,7.27
2018-05-10T13:31:16.420Z,6.87
2018-05-10T13:33:44.468Z,6.97
2018-05-10T13:36:12.384Z,6.30
2018-05-10T13:38:40.336Z,6.10
2018-05-10T13:41:08.427Z,6.07
2018-05-10T13:43:36.356Z,6.27
2018-05-10T13:46:04.282Z,6.40
2018-05-10T13:48:32.219Z,6.40
2018-05-10T13:51:00.130Z,5.93
2018-05-10T13:53:28.064Z,5.80
2018-05-10T13:55:56.505Z,6.27
2018-05-10T13:58:24.413Z,6.40
2018-05-10T14:00:52.325Z,5.50
2018-05-10T14:03:20.247Z,5.93
2018-05-10T14:05:48.307Z,5.40
2018-05-10T14:08:16.276Z,5.20
2018-05-10T14:10:44.201Z,5.20
2018-05-10T14:13:12.136Z,5.37
2018-05-10T14:15:40.060Z,5.60
2018-05-10T14:18:07.980Z,5.53
2018-05-10T14:20:36.118Z,4.90
2018-05-10T14:23:04.097Z,4.57
2018-05-10T14:25:32.036Z,5.23
2018-05-10T14:27:59.974Z,4.73
2018-05-10T14:30:27.889Z,5.03
2018-05-10T14:32:55.895Z,4.97
2018-05-10T14:35:23.781Z,4.80
2018-05-10T14:37:51.738Z,4.57
2018-05-10T14:40:19.652Z,4.17
2018-05-10T14:42:47.547Z,5.20
2018-05-10T14:45:15.649Z,5.20
2018-05-10T14:47:43.644Z,5.83
2018-05-10T14:50:11.580Z,7.07
2018-05-10T14:52:39.484Z,5.97
2018-05-10T14:55:07.387Z,6.33
2018-05-10T14:57:35.402Z,6.50
2018-05-10T15:00:03.324Z,6.57
2018-05-10T15:02:31.320Z,6.40
2018-05-10T15:04:59.233Z,6.17
2018-05-10T15:07:27.204Z,5.30
2018-05-10T15:09:55.234Z,6.00
2018-05-10T15:12:23.081Z,7.60
2018-05-10T15:14:50.999Z,6.40
2018-05-10T15:17:18.915Z,6.00
2018-05-10T15:19:46.856Z,7.97
2018-05-10T15:22:14.855Z,7.60
2018-05-10T15:24:42.773Z,6.90
2018-05-10T15:27:11.110Z,6.20
2018-05-10T15:29:39.019Z,6.30
2018-05-10T15:32:06.984Z,6.10
2018-05-10T15:34:34.892Z,7.77
2018-05-10T15:37:02.830Z,7.00
2018-05-10T15:39:30.757Z,6.43
2018-05-10T15:41:58.685Z,6.50
2018-05-10T15:44:26.611Z,6.60
2018-05-10T15:46:54.537Z,6.80
2018-05-10T15:49:22.469Z,6.40
2018-05-10T15:51:50.486Z,6.77
2018-05-10T15:54:18.434Z,7.00
2018-05-10T15:56:46.472Z,7.60
2018-05-10T15:59:14.440Z,6.57
2018-05-10T16:01:42.347Z,7.63
2018-05-10T16:04:10.406Z,7.37
2018-05-10T16:06:38.307Z,7.87
2018-05-10T16:09:06.405Z,6.33
2018-05-10T16:11:34.654Z,7.77
2018-05-10T16:14:02.559Z,7.50
2018-05-10T16:16:30.493Z,7.00
2018-05-10T16:18:58.444Z,6.70
2018-05-10T16:21:26.468Z,6.90
2018-05-10T16:23:54.380Z,7.37
2018-05-10T16:26:22.317Z,6.90
2018-05-10T16:28:50.234Z,7.43
2018-05-10T16:31:18.900Z,12.30
2018-05-10T16:33:46.853Z,13.60
2018-05-10T16:36:14.799Z,14.20
2018-05-10T16:38:42.752Z,10.77
2018-05-10T16:41:10.694Z,11.07
2018-05-10T16:43:38.600Z,10.80
2018-05-10T16:46:06.669Z,11.53
2018-05-10T16:48:34.681Z,10.53
2018-05-10T16:51:02.609Z,12.20
2018-05-10T16:53:30.598Z,10.57
2018-05-10T16:55:58.477Z,10.30
2018-05-10T16:58:26.407Z,10.53
2018-05-10T17:00:54.383Z,9.70
2018-05-10T17:03:22.272Z,9.70
2018-05-10T17:05:50.244Z,10.30
2018-05-10T17:08:18.150Z,9.13
2018-05-10T17:10:46.090Z,9.90
2018-05-10T17:13:13.997Z,9.37
2018-05-10T17:15:41.966Z,9.50
2018-05-10T17:18:09.874Z,8.97
2018-05-10T17:20:37.788Z,9.30
2018-05-10T17:23:05.722Z,9.33
2018-05-10T17:25:33.722Z,9.53
2018-05-10T17:28:01.636Z,8.93
2018-05-10T17:30:29.553Z,9.57
2018-05-10T17:32:57.469Z,9.97
2018-05-10T17:35:25.400Z,10.83
2018-05-10T17:37:53.317Z,10.23
2018-05-10T17:40:21.279Z,9.07
2018-05-10T17:42:49.194Z,10.27
2018-05-10T17:45:17.119Z,10.10
2018-05-10T17:47:45.070Z,10.80
2018-05-10T17:50:13.035Z,10.03
2018-05-10T17:52:40.967Z,9.73
2018-05-10T17:55:08.972Z,10.37
2018-05-10T17:57:36.912Z,11.10
2018-05-10T18:00:04.842Z,11.30
2018-05-10T18:02:32.807Z,11.60
2018-05-10T18:05:00.760Z,10.77
2018-05-10T18:07:28.719Z,10.87
2018-05-10T18:09:56.834Z,11.60
2018-05-10T18:12:24.767Z,10.90
2018-05-10T18:14:52.701Z,11.10
2018-05-10T18:17:20.710Z,11.57
2018-05-10T18:19:48.648Z,13.33
2018-05-10T18:22:16.594Z,12.00
2018-05-10T18:24:44.541Z,12.77
2018-05-10T18:27:12.474Z,12.63
2018-05-10T18:29:40.398Z,11.63
2018-05-10T18:32:08.387Z,11.03
2018-05-10T18:34:36.378Z,12.97
2018-05-10T18:37:04.385Z,12.40
2018-05-10T18:39:32.324Z,11.73
2018-05-10T18:42:00.325Z,10.83
2018-05-10T18:44:28.317Z,12.83
2018-05-10T18:46:56.274Z,11.67
2018-05-10T18:49:24.206Z,10.83
2018-05-10T18:51:52.131Z,10.30
2018-05-10T18:54:20.055Z,10.27
2018-05-10T18:56:47.985Z,11.20
2018-05-10T18:59:15.923Z,9.73
2018-05-10T19:01:43.837Z,11.60
2018-05-10T19:04:11.764Z,10.60
2018-05-10T19:06:39.696Z,11.37
2018-05-10T19:09:07.640Z,11.70
2018-05-10T19:11:35.573Z,10.87
2018-05-10T19:14:03.496Z,12.70
2018-05-10T19:16:31.577Z,15.07
2018-05-10T19:18:59.751Z,15.07
2018-05-10T19:21:27.640Z,15.67
2018-05-10T19:23:55.589Z,18.17
2018-05-10T19:26:23.582Z,18.40
2018-05-10T19:28:51.454Z,20.97
2018-05-10T19:31:19.401Z,22.57
2018-05-10T19:33:47.326Z,24.47
2018-05-10T19:36:15.280Z,27.77
2018-05-10T19:38:43.177Z,28.60
2018-05-10T19:41:11.113Z,31.93
2018-05-10T19:43:39.026Z,33.10
2018-05-10T19:46:06.968Z,38.80
2018-05-10T19:48:34.895Z,38.77
2018-05-10T19:51:02.829Z,42.10
2018-05-10T19:53:30.814Z,39.33
2018-05-10T19:55:58.815Z,38.57
2018-05-10T19:58:26.818Z,37.70
2018-05-10T20:00:54.745Z,37.57
2018-05-10T20:03:22.650Z,34.33
2018-05-10T20:05:50.638Z,30.97
2018-05-10T20:08:18.592Z,30.83
2018-05-10T20:10:46.513Z,30.90
2018-05-10T20:13:14.484Z,29.63
2018-05-10T20:15:42.401Z,30.03
2018-05-10T20:18:10.362Z,31.17
2018-05-10T20:20:38.466Z,31.90
2018-05-10T20:23:06.381Z,35.33
2018-05-10T20:25:34.335Z,41.23
2018-05-10T20:28:02.441Z,44.17
2018-05-10T20:30:30.552Z,46.17
2018-05-10T20:32:58.454Z,48.27
2018-05-10T20:35:26.555Z,47.03
2018-05-10T20:37:55.037Z,46.67
2018-05-10T20:40:22.955Z,45.97
2018-05-10T20:42:50.870Z,45.70
2018-05-10T20:45:18.780Z,44.00
2018-05-10T20:47:46.704Z,42.70
2018-05-10T20:50:14.625Z,43.63
2018-05-10T20:52:42.565Z,40.20
2018-05-10T20:55:10.513Z,42.37
2018-05-10T20:57:38.412Z,41.67
2018-05-10T21:00:06.352Z,40.67
2018-05-10T21:02:34.344Z,40.30
2018-05-10T21:05:02.393Z,40.60
2018-05-10T21:07:30.353Z,40.40
2018-05-10T21:09:58.344Z,39.60
2018-05-10T21:12:38.143Z,40.93
2018-05-10T21:15:06.093Z,40.60
2018-05-10T21:17:34.028Z,40.83
2018-05-10T21:20:02.584Z,42.70
2018-05-10T21:22:30.513Z,41.57
2018-05-10T21:24:58.673Z,41.37
2018-05-10T21:27:26.623Z,42.73
2018-05-10T21:29:54.635Z,43.33
2018-05-10T21:32:22.548Z,42.47
2018-05-10T21:34:50.509Z,41.57
2018-05-10T21:37:18.479Z,41.93
2018-05-10T21:39:46.434Z,42.70
2018-05-10T21:42:14.383Z,41.20
2018-05-10T21:44:42.479Z,41.87
2018-05-10T21:47:11.232Z,39.23
2018-05-10T21:49:50.949Z,38.07
2018-05-10T21:52:18.968Z,31.43
2018-05-10T21:54:46.920Z,32.77
2018-05-10T21:57:14.872Z,33.03
2018-05-10T21:59:42.837Z,29.93
2018-05-10T22:02:10.846Z,33.00
2018-05-10T22:04:38.780Z,32.40
2018-05-10T22:07:06.763Z,33.23
2018-05-10T22:09:34.720Z,31.83
2018-05-10T22:12:02.800Z,29.00
2018-05-10T22:14:30.620Z,28.40
2018-05-10T22:16:58.558Z,26.10
2018-05-10T22:19:26.544Z,28.67
2018-05-10T22:21:54.479Z,22.43
2018-05-10T22:24:22.385Z,22.60
2018-05-10T22:26:50.590Z,24.37
2018-05-10T22:29:18.554Z,22.17
2018-05-10T22:31:46.471Z,19.70
2018-05-10T22:34:14.420Z,20.30
2018-05-10T22:36:42.488Z,21.50
2018-05-10T22:39:10.432Z,20.40
2018-05-10T22:41:38.358Z,19.97
2018-05-10T22:44:06.537Z,18.57
2018-05-10T22:46:34.503Z,18.07
2018-05-10T22:49:02.448Z,20.23
2018-05-10T22:51:30.445Z,18.97
2018-05-10T22:53:58.384Z,19.07
2018-05-10T22:56:27.126Z,17.10
2018-05-10T22:58:55.255Z,16.30
2018-05-10T23:01:23.197Z,16.60
2018-05-10T23:03:51.130Z,14.57
2018-05-10T23:06:19.080Z,12.90
2018-05-10T23:08:47.049Z,12.90
2018-05-10T23:11:15.016Z,12.43
2018-05-10T23:13:43.089Z,12.07
2018-05-10T23:16:11.295Z,11.33
2018-05-10T23:18:39.196Z,9.63
2018-05-10T23:21:07.194Z,10.40
2018-05-10T23:23:35.248Z,10.40
2018-05-10T23:26:03.195Z,10.47
2018-05-10T23:28:31.107Z,13.30
2018-05-10T23:30:59.390Z,11.00
2018-05-10T23:33:27.306Z,10.80
2018-05-10T23:35:55.267Z,12.57
2018-05-10T23:38:23.180Z,12.53
2018-05-10T23:40:51.117Z,12.50
2018-05-10T23:43:19.038Z,13.77
2018-05-10T23:45:46.993Z,14.10
2018-05-10T23:48:14.959Z,12.03
2018-05-10T23:50:43.564Z,12.00
2018-05-10T23:53:11.476Z,11.90
2018-05-10T23:55:39.480Z,11.60
2018-05-10T23:58:07.397Z,12.60
